sensor_id;sensor_type;location;lat;lon;timestamp;P1;durP1;ratioP1;P2;durP2;ratioP2
5977;SDS011;3015;51.390;12.256;2022-12-18T00:00:59;98.95;;;38.90;;
5977;SDS011;3015;51.390;12.256;2022-12-18T00:03:25;80.40;;;42.25;;
5977;SDS011;3015;51.390;12.256;2022-12-18T00:05:51;73.93;;;38.87;;
5977;SDS011;3015;51.390;12.256;2022-12-18T00:08:17;78.72;;;43.63;;
5977;SDS011;3015;51.390;12.256;2022-12-18T00:10:43;87.63;;;40.60;;
5977;SDS011;3015;51.390;12.256;2022-12-18T00:13:09;84.53;;;36.30;;
5977;SDS011;3015;51.390;12.256;2022-12-18T00:15:36;80.85;;;33.63;;
5977;SDS011;3015;51.390;12.256;2022-12-18T00:18:03;70.57;;;36.25;;
5977;SDS011;3015;51.390;12.256;2022-12-18T00:20:29;106.67;;;36.47;;
5977;SDS011;3015;51.390;12.256;2022-12-18T00:22:55;74.90;;;34.20;;
5977;SDS011;3015;51.390;12.256;2022-12-18T00:25:21;91.27;;;36.60;;
5977;SDS011;3015;51.390;12.256;2022-12-18T00:27:46;52.67;;;31.57;;
5977;SDS011;3015;51.390;12.256;2022-12-18T00:30:12;60.03;;;33.30;;
5977;SDS011;3015;51.390;12.256;2022-12-18T00:32:38;65.72;;;32.03;;
5977;SDS011;3015;51.390;12.256;2022-12-18T00:35:04;46.87;;;28.90;;
5977;SDS011;3015;51.390;12.256;2022-12-18T00:37:31;63.47;;;33.28;;
5977;SDS011;3015;51.390;12.256;2022-12-18T00:39:58;58.72;;;33.42;;
5977;SDS011;3015;51.390;12.256;2022-12-18T00:42:24;66.83;;;35.07;;
5977;SDS011;3015;51.390;12.256;2022-12-18T00:45:08;62.60;;;34.33;;
5977;SDS011;3015;51.390;12.256;2022-12-18T00:47:34;60.13;;;33.03;;
5977;SDS011;3015;51.390;12.256;2022-12-18T00:50:00;58.60;;;30.60;;
5977;SDS011;3015;51.390;12.256;2022-12-18T00:52:26;55.97;;;30.53;;
5977;SDS011;3015;51.390;12.256;2022-12-18T00:54:51;60.50;;;32.00;;
5977;SDS011;3015;51.390;12.256;2022-12-18T00:57:17;61.30;;;33.40;;
5977;SDS011;3015;51.390;12.256;2022-12-18T00:59:42;53.90;;;30.50;;
5977;SDS011;3015;51.390;12.256;2022-12-18T01:02:08;62.97;;;29.87;;
5977;SDS011;3015;51.390;12.256;2022-12-18T01:04:34;57.07;;;32.33;;
5977;SDS011;3015;51.390;12.256;2022-12-18T01:06:59;56.27;;;32.00;;
5977;SDS011;3015;51.390;12.256;2022-12-18T01:09:25;50.80;;;29.57;;
5977;SDS011;3015;51.390;12.256;2022-12-18T01:11:51;54.47;;;29.53;;
5977;SDS011;3015;51.390;12.256;2022-12-18T01:14:17;54.90;;;28.03;;
5977;SDS011;3015;51.390;12.256;2022-12-18T01:16:43;52.40;;;27.63;;
5977;SDS011;3015;51.390;12.256;2022-12-18T01:19:08;51.90;;;27.67;;
5977;SDS011;3015;51.390;12.256;2022-12-18T01:21:34;54.90;;;29.37;;
5977;SDS011;3015;51.390;12.256;2022-12-18T01:24:00;45.37;;;25.10;;
5977;SDS011;3015;51.390;12.256;2022-12-18T01:26:25;43.33;;;26.63;;
5977;SDS011;3015;51.390;12.256;2022-12-18T01:28:54;44.63;;;25.27;;
5977;SDS011;3015;51.390;12.256;2022-12-18T01:31:25;40.25;;;26.83;;
5977;SDS011;3015;51.390;12.256;2022-12-18T01:33:52;47.55;;;25.67;;
5977;SDS011;3015;51.390;12.256;2022-12-18T01:36:22;39.13;;;25.27;;
5977;SDS011;3015;51.390;12.256;2022-12-18T01:38:59;43.75;;;24.17;;
5977;SDS011;3015;51.390;12.256;2022-12-18T01:41:27;40.22;;;22.63;;
5977;SDS011;3015;51.390;12.256;2022-12-18T01:49:51;46.63;;;24.55;;
5977;SDS011;3015;51.390;12.256;2022-12-18T01:52:17;40.10;;;26.13;;
5977;SDS011;3015;51.390;12.256;2022-12-18T01:54:45;31.52;;;22.08;;
5977;SDS011;3015;51.390;12.256;2022-12-18T01:57:12;37.42;;;24.08;;
5977;SDS011;3015;51.390;12.256;2022-12-18T01:59:38;39.97;;;22.73;;
5977;SDS011;3015;51.390;12.256;2022-12-18T02:02:06;31.27;;;22.00;;
5977;SDS011;3015;51.390;12.256;2022-12-18T02:04:33;41.63;;;22.67;;
5977;SDS011;3015;51.390;12.256;2022-12-18T02:09:50;28.52;;;22.13;;
5977;SDS011;3015;51.390;12.256;2022-12-18T02:12:16;26.27;;;19.80;;
5977;SDS011;3015;51.390;12.256;2022-12-18T02:14:55;35.85;;;22.67;;
5977;SDS011;3015;51.390;12.256;2022-12-18T02:17:37;37.47;;;21.92;;
5977;SDS011;3015;51.390;12.256;2022-12-18T02:20:24;35.42;;;21.23;;
5977;SDS011;3015;51.390;12.256;2022-12-18T02:29:05;43.75;;;20.85;;
5977;SDS011;3015;51.390;12.256;2022-12-18T02:31:50;33.53;;;20.08;;
5977;SDS011;3015;51.390;12.256;2022-12-18T02:34:18;40.92;;;23.80;;
5977;SDS011;3015;51.390;12.256;2022-12-18T02:36:47;27.58;;;19.58;;
5977;SDS011;3015;51.390;12.256;2022-12-18T02:39:15;32.33;;;21.08;;
5977;SDS011;3015;51.390;12.256;2022-12-18T02:41:42;40.22;;;22.33;;
5977;SDS011;3015;51.390;12.256;2022-12-18T02:44:11;33.43;;;21.50;;
5977;SDS011;3015;51.390;12.256;2022-12-18T02:46:42;40.90;;;21.73;;
5977;SDS011;3015;51.390;12.256;2022-12-18T02:51:56;32.88;;;20.45;;
5977;SDS011;3015;51.390;12.256;2022-12-18T02:54:50;36.88;;;19.88;;
5977;SDS011;3015;51.390;12.256;2022-12-18T02:57:32;39.92;;;20.15;;
5977;SDS011;3015;51.390;12.256;2022-12-18T03:00:23;36.15;;;19.35;;
5977;SDS011;3015;51.390;12.256;2022-12-18T03:02:58;32.20;;;21.27;;
5977;SDS011;3015;51.390;12.256;2022-12-18T03:05:43;28.92;;;18.25;;
5977;SDS011;3015;51.390;12.256;2022-12-18T03:08:23;36.05;;;19.85;;
5977;SDS011;3015;51.390;12.256;2022-12-18T03:10:54;33.97;;;20.48;;
5977;SDS011;3015;51.390;12.256;2022-12-18T03:13:33;34.45;;;21.88;;
5977;SDS011;3015;51.390;12.256;2022-12-18T03:16:11;35.30;;;19.27;;
5977;SDS011;3015;51.390;12.256;2022-12-18T03:21:27;35.40;;;19.05;;
5977;SDS011;3015;51.390;12.256;2022-12-18T03:23:57;26.58;;;20.02;;
5977;SDS011;3015;51.390;12.256;2022-12-18T03:26:24;33.20;;;20.88;;
5977;SDS011;3015;51.390;12.256;2022-12-18T03:28:53;34.45;;;19.25;;
5977;SDS011;3015;51.390;12.256;2022-12-18T03:31:23;34.03;;;21.20;;
5977;SDS011;3015;51.390;12.256;2022-12-18T03:36:20;31.23;;;18.90;;
5977;SDS011;3015;51.390;12.256;2022-12-18T03:38:46;35.20;;;20.83;;
5977;SDS011;3015;51.390;12.256;2022-12-18T03:41:16;33.20;;;21.37;;
5977;SDS011;3015;51.390;12.256;2022-12-18T03:44:11;30.23;;;18.27;;
5977;SDS011;3015;51.390;12.256;2022-12-18T03:46:51;25.92;;;16.48;;
5977;SDS011;3015;51.390;12.256;2022-12-18T03:49:30;32.08;;;18.02;;
5977;SDS011;3015;51.390;12.256;2022-12-18T03:52:08;34.42;;;18.27;;
5977;SDS011;3015;51.390;12.256;2022-12-18T03:54:42;38.13;;;18.17;;
5977;SDS011;3015;51.390;12.256;2022-12-18T03:57:11;36.05;;;19.25;;
5977;SDS011;3015;51.390;12.256;2022-12-18T03:59:40;34.20;;;18.42;;
5977;SDS011;3015;51.390;12.256;2022-12-18T04:02:08;30.50;;;20.00;;
5977;SDS011;3015;51.390;12.256;2022-12-18T04:04:34;30.77;;;19.77;;
5977;SDS011;3015;51.390;12.256;2022-12-18T04:07:02;25.95;;;17.05;;
5977;SDS011;3015;51.390;12.256;2022-12-18T04:09:30;31.65;;;19.08;;
5977;SDS011;3015;51.390;12.256;2022-12-18T04:11:58;30.85;;;16.77;;
5977;SDS011;3015;51.390;12.256;2022-12-18T04:14:23;33.93;;;16.70;;
5977;SDS011;3015;51.390;12.256;2022-12-18T04:16:49;22.37;;;15.90;;
5977;SDS011;3015;51.390;12.256;2022-12-18T04:19:14;36.80;;;19.73;;
5977;SDS011;3015;51.390;12.256;2022-12-18T04:21:40;25.57;;;17.33;;
5977;SDS011;3015;51.390;12.256;2022-12-18T04:24:06;31.90;;;16.50;;
5977;SDS011;3015;51.390;12.256;2022-12-18T04:26:31;30.30;;;17.10;;
5977;SDS011;3015;51.390;12.256;2022-12-18T04:28:57;22.50;;;16.77;;
5977;SDS011;3015;51.390;12.256;2022-12-18T04:31:22;27.17;;;15.13;;
5977;SDS011;3015;51.390;12.256;2022-12-18T04:33:48;31.13;;;17.23;;
5977;SDS011;3015;51.390;12.256;2022-12-18T04:36:14;27.27;;;16.43;;
5977;SDS011;3015;51.390;12.256;2022-12-18T04:38:39;23.60;;;14.60;;
5977;SDS011;3015;51.390;12.256;2022-12-18T04:41:05;37.23;;;15.20;;
5977;SDS011;3015;51.390;12.256;2022-12-18T04:43:30;21.13;;;14.40;;
5977;SDS011;3015;51.390;12.256;2022-12-18T04:46:04;29.92;;;16.25;;
5977;SDS011;3015;51.390;12.256;2022-12-18T04:48:31;31.65;;;19.45;;
5977;SDS011;3015;51.390;12.256;2022-12-18T04:50:57;30.03;;;15.87;;
5977;SDS011;3015;51.390;12.256;2022-12-18T04:53:22;33.60;;;17.90;;
5977;SDS011;3015;51.390;12.256;2022-12-18T04:55:48;22.00;;;15.60;;
5977;SDS011;3015;51.390;12.256;2022-12-18T04:58:14;20.17;;;15.10;;
5977;SDS011;3015;51.390;12.256;2022-12-18T05:00:39;22.83;;;14.00;;
5977;SDS011;3015;51.390;12.256;2022-12-18T05:03:05;28.27;;;16.13;;
5977;SDS011;3015;51.390;12.256;2022-12-18T05:05:31;22.97;;;14.13;;
5977;SDS011;3015;51.390;12.256;2022-12-18T05:07:56;34.40;;;17.17;;
5977;SDS011;3015;51.390;12.256;2022-12-18T05:10:22;25.70;;;15.70;;
5977;SDS011;3015;51.390;12.256;2022-12-18T05:12:48;21.83;;;15.37;;
5977;SDS011;3015;51.390;12.256;2022-12-18T05:15:26;26.25;;;15.20;;
5977;SDS011;3015;51.390;12.256;2022-12-18T05:17:59;27.27;;;14.10;;
5977;SDS011;3015;51.390;12.256;2022-12-18T05:20:25;22.35;;;14.32;;
5977;SDS011;3015;51.390;12.256;2022-12-18T05:22:51;33.92;;;17.55;;
5977;SDS011;3015;51.390;12.256;2022-12-18T05:25:17;29.80;;;14.30;;
5977;SDS011;3015;51.390;12.256;2022-12-18T05:27:44;29.13;;;15.10;;
5977;SDS011;3015;51.390;12.256;2022-12-18T05:30:10;23.65;;;15.05;;
5977;SDS011;3015;51.390;12.256;2022-12-18T05:32:37;25.38;;;15.82;;
5977;SDS011;3015;51.390;12.256;2022-12-18T05:35:03;29.05;;;16.38;;
5977;SDS011;3015;51.390;12.256;2022-12-18T05:37:29;20.42;;;13.95;;
5977;SDS011;3015;51.390;12.256;2022-12-18T05:39:55;21.67;;;13.70;;
5977;SDS011;3015;51.390;12.256;2022-12-18T05:42:21;26.80;;;14.53;;
5977;SDS011;3015;51.390;12.256;2022-12-18T05:44:46;21.90;;;14.43;;
5977;SDS011;3015;51.390;12.256;2022-12-18T05:47:12;23.67;;;15.30;;
5977;SDS011;3015;51.390;12.256;2022-12-18T05:49:38;22.27;;;14.57;;
5977;SDS011;3015;51.390;12.256;2022-12-18T05:52:04;32.30;;;14.57;;
5977;SDS011;3015;51.390;12.256;2022-12-18T05:54:29;18.00;;;14.10;;
5977;SDS011;3015;51.390;12.256;2022-12-18T05:56:56;31.45;;;13.02;;
5977;SDS011;3015;51.390;12.256;2022-12-18T05:59:22;17.35;;;12.93;;
5977;SDS011;3015;51.390;12.256;2022-12-18T06:01:47;24.53;;;13.90;;
5977;SDS011;3015;51.390;12.256;2022-12-18T06:04:13;27.67;;;13.80;;
5977;SDS011;3015;51.390;12.256;2022-12-18T06:06:38;17.80;;;11.83;;
5977;SDS011;3015;51.390;12.256;2022-12-18T06:09:04;20.40;;;12.77;;
5977;SDS011;3015;51.390;12.256;2022-12-18T06:11:35;18.25;;;13.40;;
5977;SDS011;3015;51.390;12.256;2022-12-18T06:14:02;21.80;;;14.13;;
5977;SDS011;3015;51.390;12.256;2022-12-18T06:16:28;23.08;;;12.80;;
5977;SDS011;3015;51.390;12.256;2022-12-18T06:18:58;20.52;;;13.70;;
5977;SDS011;3015;51.390;12.256;2022-12-18T06:21:25;24.45;;;12.88;;
5977;SDS011;3015;51.390;12.256;2022-12-18T06:23:50;20.37;;;10.80;;
5977;SDS011;3015;51.390;12.256;2022-12-18T06:26:17;18.13;;;10.93;;
5977;SDS011;3015;51.390;12.256;2022-12-18T06:28:43;18.90;;;12.82;;
5977;SDS011;3015;51.390;12.256;2022-12-18T06:31:09;19.77;;;9.73;;
5977;SDS011;3015;51.390;12.256;2022-12-18T06:33:35;20.60;;;11.05;;
5977;SDS011;3015;51.390;12.256;2022-12-18T06:36:02;18.20;;;10.23;;
5977;SDS011;3015;51.390;12.256;2022-12-18T06:38:30;20.23;;;11.45;;
5977;SDS011;3015;51.390;12.256;2022-12-18T06:40:57;13.88;;;10.82;;
5977;SDS011;3015;51.390;12.256;2022-12-18T06:43:22;18.87;;;13.13;;
5977;SDS011;3015;51.390;12.256;2022-12-18T06:45:48;18.53;;;12.40;;
5977;SDS011;3015;51.390;12.256;2022-12-18T06:48:17;21.63;;;11.57;;
5977;SDS011;3015;51.390;12.256;2022-12-18T06:50:44;18.48;;;11.20;;
5977;SDS011;3015;51.390;12.256;2022-12-18T06:53:10;16.27;;;12.00;;
5977;SDS011;3015;51.390;12.256;2022-12-18T06:55:36;15.70;;;11.00;;
5977;SDS011;3015;51.390;12.256;2022-12-18T06:58:01;14.27;;;11.03;;
5977;SDS011;3015;51.390;12.256;2022-12-18T07:00:27;17.37;;;12.00;;
5977;SDS011;3015;51.390;12.256;2022-12-18T07:02:52;20.13;;;12.40;;
5977;SDS011;3015;51.390;12.256;2022-12-18T07:05:18;16.93;;;11.73;;
5977;SDS011;3015;51.390;12.256;2022-12-18T07:07:44;14.73;;;10.90;;
5977;SDS011;3015;51.390;12.256;2022-12-18T07:10:09;14.30;;;11.80;;
5977;SDS011;3015;51.390;12.256;2022-12-18T07:12:35;15.53;;;10.93;;
5977;SDS011;3015;51.390;12.256;2022-12-18T07:15:01;17.00;;;12.03;;
5977;SDS011;3015;51.390;12.256;2022-12-18T07:17:27;14.00;;;9.98;;
5977;SDS011;3015;51.390;12.256;2022-12-18T07:19:53;16.35;;;11.57;;
5977;SDS011;3015;51.390;12.256;2022-12-18T07:22:18;16.00;;;11.17;;
5977;SDS011;3015;51.390;12.256;2022-12-18T07:24:44;19.30;;;11.27;;
5977;SDS011;3015;51.390;12.256;2022-12-18T07:27:10;18.20;;;12.20;;
5977;SDS011;3015;51.390;12.256;2022-12-18T07:29:35;18.73;;;13.07;;
5977;SDS011;3015;51.390;12.256;2022-12-18T07:32:01;13.53;;;8.10;;
5977;SDS011;3015;51.390;12.256;2022-12-18T07:34:26;16.70;;;12.33;;
5977;SDS011;3015;51.390;12.256;2022-12-18T07:36:52;14.00;;;9.23;;
5977;SDS011;3015;51.390;12.256;2022-12-18T07:39:18;21.87;;;12.70;;
5977;SDS011;3015;51.390;12.256;2022-12-18T07:41:43;14.70;;;10.23;;
5977;SDS011;3015;51.390;12.256;2022-12-18T07:44:29;19.45;;;11.32;;
5977;SDS011;3015;51.390;12.256;2022-12-18T07:46:54;13.90;;;10.03;;
5977;SDS011;3015;51.390;12.256;2022-12-18T07:49:20;17.43;;;11.60;;
5977;SDS011;3015;51.390;12.256;2022-12-18T07:51:45;14.67;;;10.67;;
5977;SDS011;3015;51.390;12.256;2022-12-18T07:54:14;11.25;;;9.38;;
5977;SDS011;3015;51.390;12.256;2022-12-18T07:56:39;14.97;;;10.57;;
5977;SDS011;3015;51.390;12.256;2022-12-18T07:59:05;17.83;;;12.30;;
5977;SDS011;3015;51.390;12.256;2022-12-18T08:01:31;11.90;;;9.83;;
5977;SDS011;3015;51.390;12.256;2022-12-18T08:03:57;14.75;;;10.93;;
5977;SDS011;3015;51.390;12.256;2022-12-18T08:06:23;17.67;;;11.73;;
5977;SDS011;3015;51.390;12.256;2022-12-18T08:08:50;15.30;;;10.23;;
5977;SDS011;3015;51.390;12.256;2022-12-18T08:11:16;18.33;;;11.50;;
5977;SDS011;3015;51.390;12.256;2022-12-18T08:13:42;14.53;;;10.00;;
5977;SDS011;3015;51.390;12.256;2022-12-18T08:16:07;15.67;;;13.00;;
5977;SDS011;3015;51.390;12.256;2022-12-18T08:18:34;14.87;;;11.37;;
5977;SDS011;3015;51.390;12.256;2022-12-18T08:21:14;19.55;;;11.27;;
5977;SDS011;3015;51.390;12.256;2022-12-18T08:23:45;12.20;;;10.07;;
5977;SDS011;3015;51.390;12.256;2022-12-18T08:26:11;14.87;;;10.37;;
5977;SDS011;3015;51.390;12.256;2022-12-18T08:28:37;17.90;;;12.77;;
5977;SDS011;3015;51.390;12.256;2022-12-18T08:31:03;13.02;;;11.32;;
5977;SDS011;3015;51.390;12.256;2022-12-18T08:33:29;21.87;;;12.53;;
5977;SDS011;3015;51.390;12.256;2022-12-18T08:35:54;14.20;;;10.53;;
5977;SDS011;3015;51.390;12.256;2022-12-18T08:38:20;21.10;;;12.50;;
5977;SDS011;3015;51.390;12.256;2022-12-18T08:40:46;19.37;;;14.20;;
5977;SDS011;3015;51.390;12.256;2022-12-18T08:43:11;19.80;;;11.70;;
5977;SDS011;3015;51.390;12.256;2022-12-18T08:45:56;20.65;;;13.30;;
5977;SDS011;3015;51.390;12.256;2022-12-18T08:48:22;18.47;;;15.30;;
5977;SDS011;3015;51.390;12.256;2022-12-18T08:50:54;22.00;;;13.60;;
5977;SDS011;3015;51.390;12.256;2022-12-18T08:53:20;12.98;;;10.93;;
5977;SDS011;3015;51.390;12.256;2022-12-18T08:55:49;11.18;;;10.13;;
5977;SDS011;3015;51.390;12.256;2022-12-18T08:58:14;13.50;;;10.70;;
5977;SDS011;3015;51.390;12.256;2022-12-18T09:00:40;14.87;;;11.30;;
5977;SDS011;3015;51.390;12.256;2022-12-18T09:03:10;13.47;;;12.07;;
5977;SDS011;3015;51.390;12.256;2022-12-18T09:05:40;14.57;;;11.43;;
5977;SDS011;3015;51.390;12.256;2022-12-18T09:08:06;17.85;;;12.23;;
5977;SDS011;3015;51.390;12.256;2022-12-18T09:10:31;17.43;;;11.43;;
5977;SDS011;3015;51.390;12.256;2022-12-18T09:12:57;13.33;;;11.93;;
5977;SDS011;3015;51.390;12.256;2022-12-18T09:15:23;12.63;;;11.33;;
5977;SDS011;3015;51.390;12.256;2022-12-18T09:17:48;13.47;;;12.20;;
5977;SDS011;3015;51.390;12.256;2022-12-18T09:20:15;14.93;;;13.50;;
5977;SDS011;3015;51.390;12.256;2022-12-18T09:22:41;21.70;;;13.88;;
5977;SDS011;3015;51.390;12.256;2022-12-18T09:25:07;13.33;;;11.93;;
5977;SDS011;3015;51.390;12.256;2022-12-18T09:27:33;14.73;;;11.77;;
5977;SDS011;3015;51.390;12.256;2022-12-18T09:29:59;14.75;;;11.50;;
5977;SDS011;3015;51.390;12.256;2022-12-18T09:32:25;13.60;;;11.60;;
5977;SDS011;3015;51.390;12.256;2022-12-18T09:34:50;16.67;;;11.53;;
5977;SDS011;3015;51.390;12.256;2022-12-18T09:37:16;11.57;;;10.43;;
5977;SDS011;3015;51.390;12.256;2022-12-18T09:39:42;16.93;;;13.00;;
5977;SDS011;3015;51.390;12.256;2022-12-18T09:42:08;13.93;;;12.53;;
5977;SDS011;3015;51.390;12.256;2022-12-18T09:44:44;12.75;;;11.32;;
5977;SDS011;3015;51.390;12.256;2022-12-18T09:49:52;14.00;;;11.63;;
5977;SDS011;3015;51.390;12.256;2022-12-18T09:57:34;13.20;;;10.82;;
5977;SDS011;3015;51.390;12.256;2022-12-18T10:00:09;11.73;;;10.60;;
5977;SDS011;3015;51.390;12.256;2022-12-18T10:02:44;14.27;;;10.43;;
5977;SDS011;3015;51.390;12.256;2022-12-18T10:05:14;15.40;;;10.68;;
5977;SDS011;3015;51.390;12.256;2022-12-18T10:10:18;15.82;;;11.10;;
5977;SDS011;3015;51.390;12.256;2022-12-18T10:16:02;13.95;;;11.98;;
5977;SDS011;3015;51.390;12.256;2022-12-18T10:18:36;14.18;;;11.52;;
5977;SDS011;3015;51.390;12.256;2022-12-18T10:21:21;13.02;;;11.73;;
5977;SDS011;3015;51.390;12.256;2022-12-18T10:26:42;10.10;;;9.20;;
5977;SDS011;3015;51.390;12.256;2022-12-18T10:29:12;12.57;;;10.30;;
5977;SDS011;3015;51.390;12.256;2022-12-18T10:31:39;10.93;;;9.55;;
5977;SDS011;3015;51.390;12.256;2022-12-18T10:34:09;12.18;;;11.02;;
5977;SDS011;3015;51.390;12.256;2022-12-18T10:36:36;10.98;;;9.98;;
5977;SDS011;3015;51.390;12.256;2022-12-18T10:39:15;14.23;;;11.30;;
5977;SDS011;3015;51.390;12.256;2022-12-18T10:41:44;12.02;;;10.77;;
5977;SDS011;3015;51.390;12.256;2022-12-18T10:44:17;11.87;;;10.67;;
5977;SDS011;3015;51.390;12.256;2022-12-18T10:46:48;13.38;;;11.43;;
5977;SDS011;3015;51.390;12.256;2022-12-18T10:49:23;11.85;;;10.65;;
5977;SDS011;3015;51.390;12.256;2022-12-18T10:51:49;11.00;;;9.57;;
5977;SDS011;3015;51.390;12.256;2022-12-18T10:54:16;10.88;;;9.98;;
5977;SDS011;3015;51.390;12.256;2022-12-18T10:56:45;11.95;;;10.70;;
5977;SDS011;3015;51.390;12.256;2022-12-18T10:59:13;9.93;;;9.13;;
5977;SDS011;3015;51.390;12.256;2022-12-18T11:01:53;9.98;;;9.07;;
5977;SDS011;3015;51.390;12.256;2022-12-18T11:04:25;8.40;;;7.50;;
5977;SDS011;3015;51.390;12.256;2022-12-18T11:09:26;8.65;;;7.75;;
5977;SDS011;3015;51.390;12.256;2022-12-18T11:11:57;9.43;;;8.52;;
5977;SDS011;3015;51.390;12.256;2022-12-18T11:14:29;8.93;;;8.13;;
5977;SDS011;3015;51.390;12.256;2022-12-18T11:16:58;9.25;;;8.50;;
5977;SDS011;3015;51.390;12.256;2022-12-18T11:19:30;9.43;;;8.40;;
5977;SDS011;3015;51.390;12.256;2022-12-18T11:22:02;8.55;;;7.85;;
5977;SDS011;3015;51.390;12.256;2022-12-18T11:24:49;11.20;;;9.02;;
5977;SDS011;3015;51.390;12.256;2022-12-18T11:27:18;9.10;;;8.20;;
5977;SDS011;3015;51.390;12.256;2022-12-18T11:29:44;9.37;;;8.47;;
5977;SDS011;3015;51.390;12.256;2022-12-18T11:37:29;7.93;;;7.32;;
5977;SDS011;3015;51.390;12.256;2022-12-18T11:39:58;9.07;;;8.15;;
5977;SDS011;3015;51.390;12.256;2022-12-18T11:42:50;10.45;;;8.07;;
5977;SDS011;3015;51.390;12.256;2022-12-18T11:45:45;8.65;;;7.85;;
5977;SDS011;3015;51.390;12.256;2022-12-18T11:48:18;9.40;;;7.32;;
5977;SDS011;3015;51.390;12.256;2022-12-18T11:50:56;8.43;;;6.93;;
5977;SDS011;3015;51.390;12.256;2022-12-18T11:53:25;8.80;;;7.90;;
5977;SDS011;3015;51.390;12.256;2022-12-18T12:06:33;8.55;;;7.75;;
5977;SDS011;3015;51.390;12.256;2022-12-18T12:11:51;8.30;;;7.50;;
5977;SDS011;3015;51.390;12.256;2022-12-18T12:17:27;8.15;;;7.45;;
5977;SDS011;3015;51.390;12.256;2022-12-18T12:20:19;10.90;;;9.70;;
5977;SDS011;3015;51.390;12.256;2022-12-18T12:28:49;12.38;;;11.18;;
5977;SDS011;3015;51.390;12.256;2022-12-18T12:40:02;19.67;;;17.88;;
5977;SDS011;3015;51.390;12.256;2022-12-18T12:42:32;15.63;;;14.20;;
5977;SDS011;3015;51.390;12.256;2022-12-18T12:45:29;15.25;;;13.95;;
5977;SDS011;3015;51.390;12.256;2022-12-18T12:48:01;14.45;;;11.82;;
5977;SDS011;3015;51.390;12.256;2022-12-18T12:50:29;14.13;;;12.82;;
5977;SDS011;3015;51.390;12.256;2022-12-18T12:52:59;15.32;;;13.77;;
5977;SDS011;3015;51.390;12.256;2022-12-18T12:55:30;15.70;;;14.10;;
5977;SDS011;3015;51.390;12.256;2022-12-18T12:58:08;15.88;;;14.38;;
5977;SDS011;3015;51.390;12.256;2022-12-18T13:00:44;18.73;;;16.73;;
5977;SDS011;3015;51.390;12.256;2022-12-18T13:03:27;19.90;;;17.83;;
5977;SDS011;3015;51.390;12.256;2022-12-18T13:08:58;17.52;;;15.73;;
5977;SDS011;3015;51.390;12.256;2022-12-18T13:14:45;16.73;;;15.05;;
5977;SDS011;3015;51.390;12.256;2022-12-18T13:17:29;20.77;;;18.60;;
5977;SDS011;3015;51.390;12.256;2022-12-18T13:22:36;16.50;;;14.65;;
5977;SDS011;3015;51.390;12.256;2022-12-18T13:25:26;16.58;;;14.90;;
5977;SDS011;3015;51.390;12.256;2022-12-18T13:35:51;17.35;;;15.73;;
5977;SDS011;3015;51.390;12.256;2022-12-18T13:41:00;14.50;;;13.10;;
5977;SDS011;3015;51.390;12.256;2022-12-18T13:43:30;13.27;;;12.00;;
5977;SDS011;3015;51.390;12.256;2022-12-18T13:46:20;13.38;;;11.98;;
5977;SDS011;3015;51.390;12.256;2022-12-18T13:48:59;16.38;;;14.52;;
5977;SDS011;3015;51.390;12.256;2022-12-18T13:51:27;15.13;;;13.52;;
5977;SDS011;3015;51.390;12.256;2022-12-18T13:54:40;18.33;;;15.32;;
5977;SDS011;3015;51.390;12.256;2022-12-18T13:56:58;16.92;;;13.77;;
5977;SDS011;3015;51.390;12.256;2022-12-18T13:59:25;16.40;;;13.63;;
5977;SDS011;3015;51.390;12.256;2022-12-18T14:01:59;16.25;;;13.00;;
5977;SDS011;3015;51.390;12.256;2022-12-18T14:04:33;13.82;;;12.48;;
5977;SDS011;3015;51.390;12.256;2022-12-18T14:09:40;13.07;;;11.35;;
5977;SDS011;3015;51.390;12.256;2022-12-18T14:12:17;13.65;;;11.48;;
5977;SDS011;3015;51.390;12.256;2022-12-18T14:15:06;14.52;;;11.18;;
5977;SDS011;3015;51.390;12.256;2022-12-18T14:17:45;13.02;;;11.65;;
5977;SDS011;3015;51.390;12.256;2022-12-18T14:20:14;17.40;;;11.25;;
5977;SDS011;3015;51.390;12.256;2022-12-18T14:22:45;18.80;;;12.32;;
5977;SDS011;3015;51.390;12.256;2022-12-18T14:27:41;15.57;;;12.77;;
5977;SDS011;3015;51.390;12.256;2022-12-18T14:33:00;17.08;;;14.23;;
5977;SDS011;3015;51.390;12.256;2022-12-18T14:35:26;17.05;;;15.25;;
5977;SDS011;3015;51.390;12.256;2022-12-18T14:37:52;16.43;;;14.57;;
5977;SDS011;3015;51.390;12.256;2022-12-18T14:40:17;15.57;;;13.97;;
5977;SDS011;3015;51.390;12.256;2022-12-18T14:42:43;19.67;;;16.07;;
5977;SDS011;3015;51.390;12.256;2022-12-18T14:48:07;20.50;;;16.35;;
5977;SDS011;3015;51.390;12.256;2022-12-18T14:50:34;22.15;;;16.70;;
5977;SDS011;3015;51.390;12.256;2022-12-18T14:53:00;21.77;;;16.53;;
5977;SDS011;3015;51.390;12.256;2022-12-18T14:55:26;25.80;;;16.40;;
5977;SDS011;3015;51.390;12.256;2022-12-18T14:57:52;18.73;;;16.60;;
5977;SDS011;3015;51.390;12.256;2022-12-18T15:00:20;17.33;;;13.10;;
5977;SDS011;3015;51.390;12.256;2022-12-18T15:02:49;17.50;;;14.32;;
5977;SDS011;3015;51.390;12.256;2022-12-18T15:05:19;25.48;;;15.35;;
5977;SDS011;3015;51.390;12.256;2022-12-18T15:07:53;18.73;;;15.23;;
5977;SDS011;3015;51.390;12.256;2022-12-18T15:10:24;18.75;;;16.02;;
5977;SDS011;3015;51.390;12.256;2022-12-18T15:18:00;21.42;;;14.95;;
5977;SDS011;3015;51.390;12.256;2022-12-18T15:25:57;22.33;;;15.43;;
5977;SDS011;3015;51.390;12.256;2022-12-18T15:30:59;25.35;;;16.83;;
5977;SDS011;3015;51.390;12.256;2022-12-18T15:33:34;23.63;;;17.58;;
5977;SDS011;3015;51.390;12.256;2022-12-18T15:36:03;21.08;;;17.48;;
5977;SDS011;3015;51.390;12.256;2022-12-18T15:38:30;19.10;;;15.90;;
5977;SDS011;3015;51.390;12.256;2022-12-18T15:40:57;25.38;;;18.83;;
5977;SDS011;3015;51.390;12.256;2022-12-18T15:43:23;25.23;;;18.80;;
5977;SDS011;3015;51.390;12.256;2022-12-18T15:45:58;23.00;;;17.52;;
5977;SDS011;3015;51.390;12.256;2022-12-18T15:48:27;24.27;;;15.70;;
5977;SDS011;3015;51.390;12.256;2022-12-18T15:50:53;24.70;;;17.10;;
5977;SDS011;3015;51.390;12.256;2022-12-18T15:53:22;24.63;;;16.95;;
5977;SDS011;3015;51.390;12.256;2022-12-18T15:55:48;21.95;;;17.88;;
5977;SDS011;3015;51.390;12.256;2022-12-18T15:58:32;25.30;;;17.55;;
5977;SDS011;3015;51.390;12.256;2022-12-18T16:00:58;24.73;;;17.10;;
5977;SDS011;3015;51.390;12.256;2022-12-18T16:03:25;27.95;;;19.35;;
5977;SDS011;3015;51.390;12.256;2022-12-18T16:05:51;24.20;;;18.20;;
5977;SDS011;3015;51.390;12.256;2022-12-18T16:08:16;29.70;;;19.00;;
5977;SDS011;3015;51.390;12.256;2022-12-18T16:10:42;26.73;;;16.60;;
5977;SDS011;3015;51.390;12.256;2022-12-18T16:13:17;26.37;;;17.57;;
5977;SDS011;3015;51.390;12.256;2022-12-18T16:15:45;26.25;;;18.80;;
5977;SDS011;3015;51.390;12.256;2022-12-18T16:18:10;30.10;;;20.80;;
5977;SDS011;3015;51.390;12.256;2022-12-18T16:20:36;30.93;;;19.57;;
5977;SDS011;3015;51.390;12.256;2022-12-18T16:23:03;24.42;;;17.15;;
5977;SDS011;3015;51.390;12.256;2022-12-18T16:25:29;27.20;;;21.00;;
5977;SDS011;3015;51.390;12.256;2022-12-18T16:27:55;25.33;;;19.47;;
5977;SDS011;3015;51.390;12.256;2022-12-18T16:30:22;25.63;;;20.60;;
5977;SDS011;3015;51.390;12.256;2022-12-18T16:32:52;23.67;;;18.55;;
5977;SDS011;3015;51.390;12.256;2022-12-18T16:35:18;27.90;;;18.80;;
5977;SDS011;3015;51.390;12.256;2022-12-18T16:37:44;27.63;;;19.47;;
5977;SDS011;3015;51.390;12.256;2022-12-18T16:40:12;25.77;;;18.90;;
5977;SDS011;3015;51.390;12.256;2022-12-18T16:42:39;28.13;;;19.90;;
5977;SDS011;3015;51.390;12.256;2022-12-18T16:45:07;29.77;;;19.20;;
5977;SDS011;3015;51.390;12.256;2022-12-18T16:47:33;27.60;;;17.88;;
5977;SDS011;3015;51.390;12.256;2022-12-18T16:49:59;28.37;;;19.30;;